Time;durP1;ratioP1;P1;durP2;ratioP2;P2;SDS_P1;SDS_P2;PMS_P1;PMS_P2;Temp;Humidity;BMP_temperature;BMP_pressure;BME280_temperature;BME280_humidity;BME280_pressure;Samples;Min_cycle;Max_cycle;Signal;HPM_P1;HPM_P2
2022/02/04 00:04:34;;;;;;;4.53;4.10;;;16.40;57.90;;;;;;5093677;27;20506;-86
2022/02/04 00:07:18;;;;;;;4.97;4.20;;;16.40;58.00;;;;;;5128572;28;20530;-84
2022/02/04 00:21:20;;;;;;;4.93;4.53;;;16.40;58.10;;;;;;5127680;27;20476;-85
2022/02/04 00:23:48;;;;;;;5.43;4.93;;;16.40;58.00;;;;;;5112188;28;20472;-85
2022/02/04 00:26:19;;;;;;;8.77;4.40;;;16.40;58.00;;;;;;5118453;28;20440;-86
2022/02/04 00:28:55;;;;;;;4.87;4.47;;;16.40;58.00;;;;;;5117913;28;20562;-86
2022/02/04 00:31:30;;;;;;;5.30;4.87;;;16.40;58.00;;;;;;5118784;28;20503;-86
2022/02/04 00:34:04;;;;;;;5.13;4.47;;;16.40;58.00;;;;;;5117111;28;20551;-86
2022/02/04 00:36:39;;;;;;;5.07;4.63;;;16.40;57.90;;;;;;5117145;28;20471;-86
2022/02/04 00:39:10;;;;;;;5.33;4.77;;;16.40;58.00;;;;;;5114951;28;20549;-86
2022/02/04 00:41:40;;;;;;;5.00;4.60;;;16.40;58.00;;;;;;5116566;28;20491;-86
2022/02/04 00:44:16;;;;;;;6.53;5.10;;;16.40;57.90;;;;;;5117209;28;20478;-86
2022/02/04 00:46:56;;;;;;;5.73;4.67;;;16.40;58.00;;;;;;5117263;28;20443;-86
2022/02/04 00:49:35;;;;;;;8.00;4.87;;;16.40;57.60;;;;;;5118187;28;20463;-86
2022/02/04 00:52:09;;;;;;;6.03;4.70;;;16.40;57.90;;;;;;5117872;28;20471;-85
2022/02/04 00:54:48;;;;;;;5.27;4.77;;;16.40;57.80;;;;;;5118350;28;20483;-86
2022/02/04 00:57:38;;;;;;;5.47;4.97;;;16.40;57.90;;;;;;5115491;28;20479;-86
2022/02/04 01:27:52;;;;;;;6.47;5.17;;;16.40;58.00;;;;;;5117629;28;20466;-85
2022/02/04 01:30:27;;;;;;;5.07;4.57;;;16.40;58.10;;;;;;5114650;28;20471;-85
2022/02/04 01:32:55;;;;;;;7.47;5.10;;;16.40;58.00;;;;;;5117692;28;20420;-85
2022/02/04 01:35:23;;;;;;;6.97;5.03;;;16.40;58.20;;;;;;5117485;28;20480;-86
2022/02/04 01:37:52;;;;;;;7.03;5.10;;;16.40;58.00;;;;;;5116968;28;20547;-86
2022/02/04 01:40:20;;;;;;;5.83;5.10;;;16.40;57.90;;;;;;5116834;28;20466;-86
2022/02/04 01:42:48;;;;;;;5.83;4.70;;;16.40;57.90;;;;;;5116580;28;20428;-86
2022/02/04 01:45:15;;;;;;;7.30;5.47;;;16.40;57.90;;;;;;5116978;28;20554;-86
2022/02/04 01:47:56;;;;;;;5.33;4.83;;;16.40;57.80;;;;;;5113729;28;20448;-86
2022/02/04 01:50:25;;;;;;;7.20;5.47;;;16.40;58.00;;;;;;5098529;28;20542;-86
2022/02/04 01:52:55;;;;;;;5.40;4.90;;;16.40;58.00;;;;;;5117145;28;20469;-86
2022/02/04 01:55:23;;;;;;;5.77;5.20;;;16.40;57.90;;;;;;5116581;28;20487;-85
2022/02/04 01:57:51;;;;;;;10.73;5.10;;;16.40;58.00;;;;;;5116655;28;20454;-86
2022/02/04 02:00:19;;;;;;;7.30;5.73;;;16.40;58.00;;;;;;5116333;28;20432;-86
2022/02/04 02:02:47;;;;;;;6.20;5.23;;;16.40;57.90;;;;;;5117375;28;20443;-85
2022/02/04 02:05:14;;;;;;;7.40;5.97;;;16.40;57.90;;;;;;5116436;28;20471;-85
2022/02/04 02:07:46;;;;;;;5.90;5.20;;;16.40;57.90;;;;;;5113139;28;20432;-85
2022/02/04 02:10:17;;;;;;;6.70;5.80;;;16.40;57.90;;;;;;5119505;27;20493;-85
2022/02/04 02:12:53;;;;;;;7.10;6.20;;;16.40;57.90;;;;;;5128374;27;20423;-85
2022/02/04 02:15:28;;;;;;;6.73;6.00;;;16.40;57.90;;;;;;5127321;27;20462;-85
2022/02/04 02:43:37;;;;;;;7.40;6.50;;;16.40;58.10;;;;;;5112063;28;20460;-84
2022/02/04 02:49:07;;;;;;;7.70;6.13;;;16.40;58.00;;;;;;5119182;28;20482;-84
2022/02/04 02:51:54;;;;;;;7.07;6.37;;;16.30;57.90;;;;;;5119925;28;20549;-84
2022/02/04 02:57:28;;;;;;;9.87;6.70;;;16.30;58.00;;;;;;5120492;28;20428;-84
2022/02/04 03:00:01;;;;;;;7.60;6.03;;;16.30;58.00;;;;;;5116143;28;20460;-84
2022/02/04 03:02:29;;;;;;;10.00;7.43;;;16.30;57.90;;;;;;5119001;28;20459;-84
2022/02/04 03:04:57;;;;;;;8.80;7.10;;;16.40;58.00;;;;;;5119333;28;20512;-85
2022/02/04 03:07:24;;;;;;;7.93;6.27;;;16.30;58.00;;;;;;5118874;28;20977;-84
2022/02/04 03:09:52;;;;;;;9.67;7.40;;;16.30;58.00;;;;;;5119008;28;20499;-84
2022/02/04 03:12:21;;;;;;;9.07;6.83;;;16.30;57.90;;;;;;5119249;28;20492;-84
2022/02/04 03:14:49;;;;;;;9.33;7.60;;;16.30;57.90;;;;;;5114323;28;20506;-84
2022/02/04 03:17:17;;;;;;;8.50;6.70;;;16.40;58.00;;;;;;5116252;28;20490;-85
2022/02/04 03:19:49;;;;;;;8.93;7.10;;;16.30;57.90;;;;;;5118690;28;20435;-84
2022/02/04 03:22:17;;;;;;;9.17;7.50;;;16.30;57.80;;;;;;5119380;28;20869;-84
2022/02/04 03:24:54;;;;;;;9.73;7.40;;;16.30;57.80;;;;;;5119001;28;20491;-85
2022/02/04 03:27:31;;;;;;;7.70;6.90;;;16.30;57.80;;;;;;5119893;28;20470;-84
2022/02/04 03:30:05;;;;;;;9.90;7.40;;;16.30;57.90;;;;;;5120077;28;20547;-85
2022/02/04 03:32:36;;;;;;;8.57;6.80;;;16.30;57.80;;;;;;5118012;28;20507;-85
2022/02/04 03:35:05;;;;;;;8.57;7.23;;;16.30;57.80;;;;;;5118858;28;20499;-84
2022/02/04 03:37:33;;;;;;;9.67;7.37;;;16.30;57.80;;;;;;5119347;28;20472;-84
2022/02/04 03:40:00;;;;;;;10.17;8.00;;;16.30;57.80;;;;;;5118705;28;20449;-84
2022/02/04 03:42:30;;;;;;;11.63;7.80;;;16.30;57.90;;;;;;5118909;28;20462;-84
2022/02/04 03:44:58;;;;;;;11.77;8.73;;;16.30;57.90;;;;;;5119539;28;20478;-84
2022/02/04 03:47:25;;;;;;;10.70;8.00;;;16.30;57.90;;;;;;5120487;28;20476;-84
2022/02/04 03:49:53;;;;;;;9.20;7.53;;;16.20;58.00;;;;;;5123300;28;20501;-84
2022/02/04 03:52:22;;;;;;;10.57;8.07;;;16.30;57.80;;;;;;5120338;28;20497;-84
2022/02/04 03:54:50;;;;;;;11.40;8.37;;;16.20;57.80;;;;;;5116823;28;20492;-85
2022/02/04 03:57:18;;;;;;;9.30;7.70;;;16.30;57.80;;;;;;5123374;28;20500;-84
2022/02/04 03:59:47;;;;;;;13.13;8.90;;;16.30;57.80;;;;;;5122922;28;20502;-84
2022/02/04 04:02:15;;;;;;;11.60;8.50;;;16.20;57.80;;;;;;5122578;28;20478;-84
2022/02/04 04:04:43;;;;;;;10.27;7.90;;;16.20;57.70;;;;;;5122723;28;20454;-84
2022/02/04 04:07:11;;;;;;;11.27;8.60;;;16.20;57.70;;;;;;5121099;28;20431;-84
2022/02/04 04:09:45;;;;;;;11.07;8.30;;;16.20;57.80;;;;;;5118488;28;20507;-84
2022/02/04 04:12:13;;;;;;;11.77;8.57;;;16.20;57.80;;;;;;5119376;28;20474;-84
2022/02/04 04:14:41;;;;;;;14.00;8.93;;;16.20;57.80;;;;;;5122897;28;20501;-84
2022/02/04 04:17:10;;;;;;;11.00;8.30;;;16.20;57.70;;;;;;5118801;28;20447;-85
2022/02/04 04:19:38;;;;;;;11.33;8.07;;;16.20;57.80;;;;;;5122054;28;20526;-84
2022/02/04 04:22:05;;;;;;;11.27;8.20;;;16.20;57.70;;;;;;5122396;28;20440;-84
2022/02/04 04:24:33;;;;;;;11.70;8.60;;;16.20;57.60;;;;;;5112704;28;20451;-84
2022/02/04 04:27:01;;;;;;;12.60;8.30;;;16.20;57.80;;;;;;5113894;28;20455;-84
2022/02/04 04:29:29;;;;;;;12.77;9.40;;;16.20;57.70;;;;;;5115890;28;20455;-84
2022/02/04 04:31:57;;;;;;;11.77;9.30;;;16.20;57.80;;;;;;5127130;28;20498;-84
2022/02/04 04:34:26;;;;;;;12.50;9.13;;;16.20;57.80;;;;;;5133435;28;20456;-84
2022/02/04 04:36:54;;;;;;;12.57;9.50;;;16.20;57.70;;;;;;5129343;28;20443;-84
2022/02/04 04:39:27;;;;;;;12.80;9.20;;;16.20;57.70;;;;;;5122629;28;20466;-84
2022/02/04 04:42:09;;;;;;;12.90;9.17;;;16.20;57.70;;;;;;5118933;28;20523;-84
2022/02/04 05:26:35;;;;;;;14.50;9.63;;;16.10;57.70;;;;;;5038097;28;20478;-84
2022/02/04 05:29:07;;;;;;;13.70;10.57;;;16.20;57.80;;;;;;5110126;28;20459;-83
2022/02/04 05:31:35;;;;;;;13.37;9.40;;;16.20;57.70;;;;;;5119750;28;20491;-85
2022/02/04 05:34:03;;;;;;;13.53;9.80;;;16.20;57.70;;;;;;5120125;28;20527;-84
2022/02/04 05:36:34;;;;;;;15.30;10.50;;;16.20;57.60;;;;;;5116789;28;20580;-83
2022/02/04 05:39:03;;;;;;;14.07;9.80;;;16.20;57.50;;;;;;5119715;28;20464;-83
2022/02/04 05:41:34;;;;;;;13.40;9.83;;;16.20;57.50;;;;;;5120843;28;20508;-83
2022/02/04 05:44:07;;;;;;;15.03;9.60;;;16.20;57.40;;;;;;5120292;28;20546;-83
2022/02/04 05:46:40;;;;;;;13.43;10.73;;;16.20;57.50;;;;;;5120345;28;20519;-83
2022/02/04 05:49:09;;;;;;;15.00;10.03;;;16.20;57.50;;;;;;5121858;28;20472;-83
2022/02/04 05:51:44;;;;;;;13.63;10.43;;;16.20;57.40;;;;;;5121459;28;20558;-83
2022/02/04 05:54:19;;;;;;;17.27;11.10;;;16.20;57.50;;;;;;5118972;27;20503;-83
2022/02/04 05:56:56;;;;;;;20.00;11.83;;;16.20;57.50;;;;;;5122199;28;20463;-83
2022/02/04 05:59:32;;;;;;;14.90;10.50;;;16.20;57.40;;;;;;5121984;28;20436;-84
2022/02/04 06:02:09;;;;;;;13.60;10.07;;;16.20;57.40;;;;;;5119716;28;20535;-83
2022/02/04 06:04:46;;;;;;;15.23;10.50;;;16.20;57.40;;;;;;5119670;28;20459;-83
2022/02/04 06:07:24;;;;;;;17.87;11.80;;;16.20;57.40;;;;;;5119843;28;20491;-83
2022/02/04 06:23:51;;;;;;;15.33;10.80;;;16.20;57.40;;;;;;5119172;28;20494;-83
2022/02/04 06:26:20;;;;;;;16.90;12.00;;;16.20;57.30;;;;;;5119087;28;20454;-83
2022/02/04 06:28:48;;;;;;;15.27;10.80;;;16.20;57.50;;;;;;5119038;28;20451;-83
2022/02/04 06:31:21;;;;;;;18.07;11.90;;;16.20;57.40;;;;;;5114781;28;20944;-83
2022/02/04 06:33:48;;;;;;;14.80;10.90;;;16.20;57.40;;;;;;5119409;28;20515;-83
2022/02/04 06:36:16;;;;;;;13.77;10.53;;;16.20;57.40;;;;;;5120022;28;20478;-83
2022/02/04 06:38:44;;;;;;;17.37;12.20;;;16.20;57.40;;;;;;5119832;28;20543;-83
2022/02/04 06:41:12;;;;;;;14.83;11.07;;;16.20;57.30;;;;;;5120001;28;20418;-83
2022/02/04 06:43:41;;;;;;;15.60;11.33;;;16.30;57.50;;;;;;5119720;28;20990;-83
2022/02/04 06:46:09;;;;;;;15.00;10.87;;;16.30;57.30;;;;;;5119493;28;20436;-83
2022/02/04 06:48:37;;;;;;;13.97;10.30;;;16.30;57.30;;;;;;5115564;28;20475;-83
2022/02/04 06:51:05;;;;;;;16.50;12.20;;;16.30;57.50;;;;;;5118971;28;20502;-83
2022/02/04 06:53:32;;;;;;;14.73;11.03;;;16.30;57.30;;;;;;5118707;28;20468;-83
2022/02/04 06:56:00;;;;;;;16.17;11.17;;;16.30;57.40;;;;;;5118619;28;20471;-83
2022/02/04 06:58:28;;;;;;;15.17;11.30;;;16.30;57.40;;;;;;5118498;28;20454;-83
2022/02/04 07:00:57;;;;;;;13.37;10.10;;;16.30;57.20;;;;;;5119762;28;20436;-83
2022/02/04 07:03:25;;;;;;;15.57;11.43;;;16.30;57.80;;;;;;5119630;28;20493;-83
2022/02/04 07:05:56;;;;;;;12.33;9.43;;;16.30;57.40;;;;;;5116306;28;20483;-83
2022/02/04 07:08:43;;;;;;;13.50;10.87;;;16.30;57.30;;;;;;5119639;28;20519;-83
2022/02/04 07:11:34;;;;;;;13.67;10.70;;;16.30;57.30;;;;;;5118880;28;20493;-83
2022/02/04 07:14:12;;;;;;;13.40;10.30;;;16.30;57.30;;;;;;5119236;28;20463;-83
2022/02/04 07:16:56;;;;;;;14.10;10.80;;;16.30;57.30;;;;;;5119542;28;20427;-83
2022/02/04 07:22:09;;;;;;;13.90;10.60;;;16.30;57.40;;;;;;5118382;28;20475;-83
2022/02/04 07:24:37;;;;;;;13.57;10.20;;;16.30;57.20;;;;;;5119876;28;20479;-86
2022/02/04 07:27:05;;;;;;;13.57;10.30;;;16.30;57.30;;;;;;5120197;28;20443;-86
2022/02/04 07:29:33;;;;;;;14.33;10.80;;;16.40;57.40;;;;;;5119919;28;20455;-83
2022/02/04 07:32:08;;;;;;;12.80;9.93;;;16.30;57.30;;;;;;5120353;28;20480;-83
2022/02/04 07:34:44;;;;;;;13.07;10.00;;;16.40;57.30;;;;;;5119597;28;20439;-83
2022/02/04 07:42:43;;;;;;;14.60;11.23;;;16.40;57.40;;;;;;5120505;28;20443;-83
2022/02/04 07:45:11;;;;;;;12.30;9.83;;;16.40;57.40;;;;;;5119484;28;20526;-83
2022/02/04 07:47:40;;;;;;;13.23;9.80;;;16.40;57.30;;;;;;5117411;28;20498;-84
2022/02/04 07:50:09;;;;;;;12.77;9.80;;;16.40;57.20;;;;;;5117407;28;20424;-84
2022/02/04 07:52:36;;;;;;;12.23;10.10;;;16.40;57.20;;;;;;5118120;28;20499;-84
2022/02/04 07:55:05;;;;;;;11.90;10.43;;;16.40;57.10;;;;;;5117711;28;20477;-84
2022/02/04 07:57:34;;;;;;;14.20;10.47;;;16.50;57.20;;;;;;5116087;28;20491;-84
2022/02/04 08:00:03;;;;;;;12.83;10.33;;;16.50;57.20;;;;;;5116417;28;20468;-84
2022/02/04 08:02:32;;;;;;;12.77;10.10;;;16.50;57.30;;;;;;5116906;28;20463;-84
2022/02/04 08:05:04;;;;;;;11.07;8.90;;;16.50;57.20;;;;;;5117405;28;20510;-84
2022/02/04 08:07:39;;;;;;;12.00;9.40;;;16.50;57.30;;;;;;5116551;28;20550;-84
2022/02/04 08:10:20;;;;;;;11.00;8.97;;;16.50;57.30;;;;;;5117958;28;20517;-84
2022/02/04 08:13:17;;;;;;;11.60;9.43;;;16.50;57.10;;;;;;5117624;28;20464;-84
2022/02/04 08:16:06;;;;;;;13.33;10.03;;;16.50;57.20;;;;;;5115521;28;20483;-84
2022/02/04 08:19:09;;;;;;;12.17;8.63;;;16.60;57.10;;;;;;5115943;28;20462;-84
2022/02/04 08:21:58;;;;;;;11.00;8.73;;;16.50;57.10;;;;;;5117785;28;20459;-84
2022/02/04 08:24:40;;;;;;;11.50;9.27;;;16.60;57.00;;;;;;5117015;28;20551;-84
2022/02/04 08:30:13;;;;;;;9.97;8.53;;;16.60;57.00;;;;;;5108399;28;20444;-84
2022/02/04 08:32:50;;;;;;;9.60;8.60;;;16.60;57.10;;;;;;5113961;28;20513;-84
2022/02/04 08:35:36;;;;;;;11.73;8.80;;;16.60;57.10;;;;;;5114197;28;20468;-84
2022/02/04 08:38:22;;;;;;;11.20;8.93;;;16.60;57.00;;;;;;5121023;28;20474;-84
2022/02/04 08:46:54;;;;;;;11.30;8.83;;;16.70;57.20;;;;;;5121354;28;20484;-86
2022/02/04 08:49:39;;;;;;;10.67;8.70;;;16.70;57.10;;;;;;5118437;28;20440;-86
2022/02/04 08:54:56;;;;;;;8.93;7.93;;;16.80;57.00;;;;;;5119566;28;20492;-86
2022/02/04 08:57:26;;;;;;;9.63;8.63;;;16.80;56.90;;;;;;5121057;28;20451;-84
2022/02/04 09:00:02;;;;;;;10.87;9.40;;;16.80;56.90;;;;;;5121104;28;20470;-84
2022/02/04 09:02:35;;;;;;;8.93;8.03;;;16.80;56.90;;;;;;5120127;28;20491;-84
2022/02/04 09:05:05;;;;;;;10.17;8.23;;;16.90;57.00;;;;;;5118823;28;20495;-83
2022/02/04 09:07:46;;;;;;;10.17;8.47;;;16.90;56.70;;;;;;5120861;28;20522;-83
2022/02/04 09:10:19;;;;;;;10.00;8.30;;;16.90;56.60;;;;;;5120174;28;20420;-86
2022/02/04 09:21:37;;;;;;;8.87;8.00;;;17.00;56.60;;;;;;5119704;28;20498;-84
2022/02/04 09:24:06;;;;;;;7.73;6.93;;;17.00;56.60;;;;;;5115888;28;20515;-84
2022/02/04 09:26:35;;;;;;;8.70;7.80;;;17.10;56.70;;;;;;5121097;28;20420;-84
2022/02/04 09:29:03;;;;;;;9.03;7.77;;;17.10;56.60;;;;;;5118698;28;20432;-84
2022/02/04 09:31:31;;;;;;;8.90;7.13;;;17.20;56.60;;;;;;5119500;28;20480;-84
2022/02/04 09:33:59;;;;;;;9.23;8.23;;;17.30;56.50;;;;;;5120042;28;20550;-84
2022/02/04 09:36:28;;;;;;;7.80;6.77;;;17.30;56.60;;;;;;5121035;28;20503;-85
2022/02/04 09:38:56;;;;;;;7.87;7.07;;;17.40;56.40;;;;;;5118373;28;20448;-85
2022/02/04 09:41:23;;;;;;;7.30;6.60;;;17.50;56.20;;;;;;5120036;28;20523;-85
2022/02/04 09:43:53;;;;;;;8.63;6.87;;;17.50;56.20;;;;;;5120083;28;20444;-85
2022/02/04 09:46:21;;;;;;;8.20;7.33;;;17.60;56.00;;;;;;5117807;28;20535;-85
2022/02/04 09:48:53;;;;;;;6.63;6.00;;;17.60;56.00;;;;;;5119647;28;20416;-85
2022/02/04 09:51:29;;;;;;;7.13;6.53;;;17.60;56.10;;;;;;5117809;28;20436;-85
2022/02/04 10:06:39;;;;;;;6.97;6.27;;;17.70;55.90;;;;;;5118609;28;20483;-84
2022/02/04 10:08:36;;;;;;;6.67;5.83;;;17.70;56.00;;;;;;5118471;28;20651;-84
2022/02/04 10:14:23;;;;;;;7.80;5.93;;;17.80;56.00;;;;;;5111721;28;20559;-85
2022/02/04 10:17:10;;;;;;;6.30;5.80;;;17.80;56.10;;;;;;5117361;28;20456;-84
2022/02/04 10:19:49;;;;;;;6.53;5.80;;;17.90;55.90;;;;;;5117086;28;20503;-84
2022/02/04 10:22:18;;;;;;;7.60;5.83;;;17.90;55.80;;;;;;5117778;28;20435;-84
2022/02/04 10:24:55;;;;;;;7.23;5.50;;;17.80;55.80;;;;;;5117907;28;20471;-84
2022/02/04 10:27:23;;;;;;;5.70;5.20;;;17.80;55.80;;;;;;5117277;28;20506;-85
2022/02/04 10:29:53;;;;;;;5.83;5.23;;;17.80;56.00;;;;;;5115143;28;20452;-85
2022/02/04 10:32:26;;;;;;;5.97;5.43;;;17.80;55.90;;;;;;5116164;28;20501;-85
2022/02/04 10:35:03;;;;;;;5.03;4.60;;;17.80;56.00;;;;;;5113256;28;20506;-86
2022/02/04 10:37:33;;;;;;;6.10;5.40;;;17.80;56.10;;;;;;5112954;28;20436;-87
2022/02/04 10:40:24;;;;;;;5.17;4.77;;;17.80;56.10;;;;;;5113380;28;20479;-87
2022/02/04 10:43:01;;;;;;;6.07;5.33;;;17.90;56.00;;;;;;5112885;28;20424;-87
2022/02/04 10:45:43;;;;;;;5.60;5.13;;;17.80;55.90;;;;;;5113072;28;20512;-87
2022/02/04 10:48:33;;;;;;;5.53;4.93;;;17.80;55.80;;;;;;5114407;28;20463;-84
2022/02/04 10:54:09;;;;;;;5.50;5.10;;;17.70;55.80;;;;;;5117436;28;20503;-84
2022/02/04 10:56:55;;;;;;;4.90;4.40;;;17.80;55.80;;;;;;5110317;28;20502;-86
2022/02/04 10:59:35;;;;;;;4.90;4.50;;;17.70;55.70;;;;;;5119987;27;20475;-86
2022/02/04 11:02:16;;;;;;;5.93;4.70;;;17.80;55.90;;;;;;5124277;27;20459;-86
2022/02/04 11:04:55;;;;;;;5.60;4.73;;;17.70;55.90;;;;;;5119301;27;20460;-86
2022/02/04 11:07:47;;;;;;;5.03;4.63;;;17.70;56.00;;;;;;5125566;27;20468;-86
2022/02/04 11:10:30;;;;;;;4.27;3.97;;;17.70;56.00;;;;;;5122190;27;20463;-86
2022/02/04 11:35:56;;;;;;;3.33;3.13;;;17.90;55.40;;;;;;5123852;28;20455;-85
2022/02/04 11:52:31;;;;;;;3.63;3.37;;;17.70;55.70;;;;;;5113792;28;20523;-86
2022/02/04 11:55:00;;;;;;;3.23;3.00;;;17.70;55.80;;;;;;5120308;28;20510;-85
2022/02/04 11:57:28;;;;;;;3.47;3.03;;;17.60;55.70;;;;;;5122728;28;20450;-84
2022/02/04 11:59:59;;;;;;;3.10;2.90;;;17.70;55.80;;;;;;5125126;28;20424;-81
2022/02/04 12:02:37;;;;;;;3.20;3.00;;;17.70;55.70;;;;;;5128328;28;20452;-84
2022/02/04 12:05:30;;;;;;;3.30;3.10;;;17.70;55.70;;;;;;5131129;28;20472;-82
2022/02/04 12:08:17;;;;;;;3.13;2.80;;;17.80;55.60;;;;;;5130623;28;20446;-83
2022/02/04 12:10:53;;;;;;;3.53;3.10;;;17.80;55.40;;;;;;5131418;27;20440;-83
2022/02/04 12:13:22;;;;;;;3.10;2.90;;;17.80;55.30;;;;;;5134709;28;20459;-83
2022/02/04 12:16:04;;;;;;;3.77;3.47;;;17.80;55.80;;;;;;5134214;28;20500;-83
2022/02/04 12:19:08;;;;;;;3.17;2.97;;;17.80;55.20;;;;;;5128118;28;20463;-84
2022/02/04 12:21:48;;;;;;;2.93;2.70;;;17.80;55.10;;;;;;5129126;28;20443;-83
2022/02/04 12:24:36;;;;;;;3.23;3.00;;;17.80;55.20;;;;;;5125069;28;20491;-83
2022/02/04 12:27:28;;;;;;;4.60;2.70;;;17.80;55.30;;;;;;5125036;28;20477;-83
2022/02/04 12:29:57;;;;;;;3.33;2.93;;;17.80;55.30;;;;;;5124924;28;20468;-84
2022/02/04 12:32:26;;;;;;;2.70;2.50;;;17.70;55.20;;;;;;5131169;28;20460;-83
2022/02/04 12:34:54;;;;;;;3.20;2.90;;;17.70;55.20;;;;;;5130022;28;20471;-83
2022/02/04 12:37:22;;;;;;;2.83;2.63;;;17.70;55.30;;;;;;5129207;28;20466;-84
2022/02/04 12:39:50;;;;;;;3.27;2.67;;;17.80;55.20;;;;;;5128968;28;20439;-84
2022/02/04 12:42:19;;;;;;;2.50;2.40;;;17.80;55.20;;;;;;5131353;28;20435;-83
2022/02/04 12:44:49;;;;;;;2.93;2.73;;;17.80;55.30;;;;;;5123731;28;20459;-85
2022/02/04 12:47:20;;;;;;;2.27;2.17;;;17.80;55.20;;;;;;5119558;28;20488;-85
2022/02/04 12:49:50;;;;;;;2.67;2.57;;;17.80;55.10;;;;;;5119042;28;20443;-85
2022/02/04 12:52:23;;;;;;;3.43;2.37;;;17.80;55.10;;;;;;5118974;28;20457;-85
2022/02/04 12:54:52;;;;;;;2.30;2.10;;;17.80;55.20;;;;;;5118121;28;20476;-85
2022/02/04 12:57:33;;;;;;;2.30;2.20;;;17.70;55.10;;;;;;5114904;28;20424;-85
2022/02/04 13:00:09;;;;;;;6.27;2.73;;;17.80;55.00;;;;;;5128441;28;20450;-85
2022/02/04 13:08:19;;;;;;;2.90;2.27;;;17.80;55.10;;;;;;5122019;28;20447;-83
2022/02/04 13:10:58;;;;;;;2.23;2.10;;;17.80;55.10;;;;;;5115755;28;20452;-83
2022/02/04 13:13:26;;;;;;;2.10;1.93;;;17.80;55.00;;;;;;5111117;27;20452;-83
2022/02/04 13:15:56;;;;;;;2.20;2.00;;;17.80;54.80;;;;;;5122318;28;20460;-86
2022/02/04 13:18:24;;;;;;;2.80;2.00;;;17.80;55.00;;;;;;5124372;28;20440;-84
2022/02/04 13:20:55;;;;;;;2.10;2.00;;;17.80;55.00;;;;;;5120882;28;20472;-84
2022/02/04 13:23:24;;;;;;;2.43;2.30;;;17.80;55.00;;;;;;5118433;28;20815;-84
2022/02/04 13:25:53;;;;;;;2.63;2.43;;;17.80;55.00;;;;;;5114770;28;20449;-83
2022/02/04 13:28:21;;;;;;;2.37;2.27;;;17.80;55.00;;;;;;5115437;28;20476;-85
2022/02/04 13:30:58;;;;;;;2.20;2.10;;;17.70;55.00;;;;;;5115294;28;20436;-83
2022/02/04 13:33:29;;;;;;;2.47;2.30;;;17.80;55.00;;;;;;5120817;28;20443;-83
2022/02/04 13:36:02;;;;;;;2.30;2.10;;;17.80;55.00;;;;;;5125183;28;20492;-86
2022/02/04 13:38:40;;;;;;;2.37;2.17;;;17.80;55.10;;;;;;5125089;28;20497;-85
2022/02/04 13:41:20;;;;;;;1.90;1.80;;;17.70;54.90;;;;;;5126407;28;20451;-86
2022/02/04 13:44:16;;;;;;;2.80;2.00;;;17.70;55.00;;;;;;5113973;28;20452;-86
2022/02/04 13:46:50;;;;;;;1.87;1.80;;;17.70;55.10;;;;;;5121068;28;20445;-86
2022/02/04 13:52:07;;;;;;;4.40;2.57;;;17.70;55.00;;;;;;5129915;28;20436;-84
2022/02/04 13:54:51;;;;;;;8.30;2.03;;;17.60;55.10;;;;;;5123541;28;20467;-85
2022/02/04 13:57:33;;;;;;;1.90;1.80;;;17.60;55.00;;;;;;5126297;28;20451;-87
2022/02/04 14:00:23;;;;;;;3.50;1.83;;;17.60;55.00;;;;;;5121691;28;20485;-85
2022/02/04 14:03:09;;;;;;;2.23;2.00;;;17.60;55.30;;;;;;5116480;28;20455;-84
2022/02/04 14:05:47;;;;;;;2.07;1.87;;;17.60;54.90;;;;;;5119591;28;20462;-85
2022/02/04 14:11:29;;;;;;;2.00;1.90;;;17.50;55.00;;;;;;5125498;28;20431;-85
2022/02/04 14:14:04;;;;;;;1.80;1.70;;;17.50;55.10;;;;;;5104602;28;20455;-83
2022/02/04 14:16:32;;;;;;;1.70;1.70;;;17.50;55.10;;;;;;5119499;28;20428;-84
2022/02/04 14:19:00;;;;;;;4.00;1.77;;;17.50;55.30;;;;;;5109459;28;20483;-85
2022/02/04 14:21:33;;;;;;;2.00;1.70;;;17.50;55.20;;;;;;5122994;28;20525;-85
2022/02/04 14:24:08;;;;;;;5.60;1.83;;;17.50;55.10;;;;;;5104228;28;20552;-84
2022/02/04 14:26:39;;;;;;;1.93;1.83;;;17.60;55.10;;;;;;5104929;28;20444;-84
2022/02/04 14:29:11;;;;;;;1.77;1.60;;;17.50;55.20;;;;;;5106951;28;20444;-87
2022/02/04 14:31:45;;;;;;;2.10;1.57;;;17.50;55.00;;;;;;5126237;28;20439;-87
2022/02/04 14:37:14;;;;;;;3.77;1.80;;;17.50;55.10;;;;;;5119238;28;20456;-87
2022/02/04 14:51:30;;;;;;;3.03;1.77;;;17.40;55.20;;;;;;5129021;28;20435;-84
2022/02/04 14:54:07;;;;;;;1.73;1.63;;;17.40;55.20;;;;;;5127352;27;20463;-84
2022/02/04 15:02:14;;;;;;;3.50;1.77;;;17.30;55.50;;;;;;5125350;28;20440;-84
2022/02/04 15:04:47;;;;;;;2.23;2.03;;;17.30;55.60;;;;;;5131445;28;20460;-84
2022/02/04 15:07:15;;;;;;;1.97;1.87;;;17.30;55.70;;;;;;5120271;28;20440;-85
2022/02/04 15:09:51;;;;;;;2.30;1.83;;;17.20;55.60;;;;;;5120967;28;20432;-87
2022/02/04 15:12:19;;;;;;;3.83;2.03;;;17.20;55.70;;;;;;5119589;28;20463;-87
2022/02/04 15:14:47;;;;;;;1.90;1.80;;;17.20;55.80;;;;;;5121407;28;20467;-84
2022/02/04 15:17:15;;;;;;;1.97;1.40;;;17.20;55.70;;;;;;5123195;27;20444;-84
2022/02/04 15:19:44;;;;;;;1.93;1.40;;;17.20;55.80;;;;;;5120481;28;20497;-84
2022/02/04 15:22:13;;;;;;;2.47;1.90;;;17.20;55.80;;;;;;5128130;27;20447;-84
2022/02/04 15:24:41;;;;;;;1.80;1.70;;;17.10;55.90;;;;;;5139323;27;20512;-82
2022/02/04 15:27:11;;;;;;;4.70;1.70;;;17.10;56.00;;;;;;5137320;27;20442;-84
2022/02/04 15:29:44;;;;;;;1.90;1.70;;;17.10;56.00;;;;;;5132621;27;20448;-81
2022/02/04 15:32:12;;;;;;;1.30;1.30;;;17.10;56.00;;;;;;5122189;28;20485;-81
2022/02/04 15:34:40;;;;;;;2.03;1.93;;;17.10;56.10;;;;;;5119848;28;20464;-81
2022/02/04 15:37:08;;;;;;;1.90;1.80;;;17.10;56.10;;;;;;5120628;28;20502;-81
2022/02/04 15:39:36;;;;;;;2.17;1.97;;;17.00;56.20;;;;;;5119104;28;20444;-81
2022/02/04 15:42:09;;;;;;;1.70;1.60;;;17.10;56.30;;;;;;5116384;28;20469;-83
2022/02/04 15:44:42;;;;;;;1.90;1.80;;;17.00;56.20;;;;;;5121035;28;20455;-82
2022/02/04 15:47:27;;;;;;;1.60;1.50;;;17.00;56.30;;;;;;5122748;28;20439;-83
2022/02/04 15:50:16;;;;;;;1.73;1.63;;;17.00;56.40;;;;;;5113424;28;20489;-85
2022/02/04 15:52:57;;;;;;;1.73;1.63;;;17.00;56.60;;;;;;5114723;28;20519;-83
2022/02/04 15:58:25;;;;;;;5.43;1.67;;;17.00;56.70;;;;;;5120434;28;20480;-83
2022/02/04 16:01:05;;;;;;;1.60;1.50;;;16.90;56.80;;;;;;5109400;28;20458;-81
2022/02/04 16:03:42;;;;;;;1.77;1.67;;;16.90;56.90;;;;;;5103046;28;20451;-82
2022/02/04 16:06:14;;;;;;;2.40;1.57;;;16.90;57.10;;;;;;5119199;28;20872;-80
2022/02/04 16:08:42;;;;;;;1.63;1.53;;;16.90;57.20;;;;;;5125134;28;20412;-81
2022/02/04 16:11:19;;;;;;;1.70;1.60;;;16.90;57.20;;;;;;5120262;28;20515;-84
2022/02/04 16:13:53;;;;;;;1.70;1.60;;;16.80;57.30;;;;;;5121742;28;20440;-82
2022/02/04 16:16:28;;;;;;;1.93;1.83;;;16.80;57.30;;;;;;5127535;28;20463;-86
2022/02/04 16:19:06;;;;;;;2.63;1.67;;;16.80;57.40;;;;;;5120729;28;20435;-84
2022/02/04 16:21:42;;;;;;;1.80;1.70;;;16.80;57.50;;;;;;5114247;28;20452;-83
2022/02/04 16:24:43;;;;;;;3.70;2.13;;;16.80;57.60;;;;;;5107786;28;20443;-83
2022/02/04 16:29:52;;;;;;;1.83;1.73;;;16.70;57.60;;;;;;5058518;28;20431;-83
2022/02/04 16:32:21;;;;;;;2.00;1.90;;;16.70;57.60;;;;;;5124389;28;20467;-81
2022/02/04 16:34:55;;;;;;;1.70;1.67;;;16.70;57.70;;;;;;5124922;28;20455;-81
2022/02/04 16:37:30;;;;;;;2.00;1.90;;;16.70;58.40;;;;;;5124160;28;20498;-81
2022/02/04 16:39:58;;;;;;;1.80;1.70;;;16.70;57.80;;;;;;5125795;28;20463;-82
2022/02/04 16:42:27;;;;;;;2.33;1.80;;;16.60;57.80;;;;;;5124983;28;20474;-81
2022/02/04 16:44:55;;;;;;;2.47;1.70;;;16.60;57.80;;;;;;5114266;28;20503;-81
2022/02/04 16:47:24;;;;;;;1.80;1.70;;;16.60;57.80;;;;;;5121980;28;20427;-82
2022/02/04 16:49:52;;;;;;;3.80;2.10;;;16.60;57.80;;;;;;5125309;28;20499;-81
2022/02/04 16:52:19;;;;;;;2.03;1.90;;;16.60;58.00;;;;;;5124378;28;20428;-81
2022/02/04 16:54:48;;;;;;;1.80;1.60;;;16.60;58.00;;;;;;5124162;28;20498;-81
2022/02/04 16:57:16;;;;;;;6.43;2.03;;;16.50;58.00;;;;;;5120763;28;20499;-83
2022/02/04 16:59:44;;;;;;;2.00;1.90;;;16.50;57.90;;;;;;5121985;28;20436;-82
2022/02/04 17:02:12;;;;;;;2.30;2.20;;;16.40;58.10;;;;;;5124466;28;20447;-81
2022/02/04 17:04:41;;;;;;;2.43;1.67;;;16.40;58.00;;;;;;5103294;28;20500;-82
2022/02/04 17:07:17;;;;;;;2.23;2.13;;;16.40;58.10;;;;;;5103315;28;20421;-81
2022/02/04 17:09:48;;;;;;;3.70;1.83;;;16.40;58.10;;;;;;5100523;28;20451;-81
2022/02/04 17:12:26;;;;;;;3.43;2.13;;;16.40;58.10;;;;;;5099917;28;20516;-82
2022/02/04 17:14:54;;;;;;;6.13;2.07;;;16.40;58.10;;;;;;5100368;28;20510;-82
2022/02/04 17:17:24;;;;;;;2.73;2.10;;;16.40;58.00;;;;;;5099725;28;20491;-82
2022/02/04 17:20:04;;;;;;;3.77;2.13;;;16.30;58.00;;;;;;5103913;28;20950;-83
2022/02/04 17:22:34;;;;;;;2.27;2.10;;;16.30;58.00;;;;;;5122904;28;20436;-83
2022/02/04 17:25:07;;;;;;;2.30;1.67;;;16.20;58.10;;;;;;5121647;28;20468;-83